Time;durP1;ratioP1;P1;durP2;ratioP2;P2;SDS_P1;SDS_P2;PMS_P1;PMS_P2;Temp;Humidity;BMP_temperature;BMP_pressure;BME280_temperature;BME280_humidity;BME280_pressure;Samples;Min_cycle;Max_cycle;Signal;HPM_P1;HPM_P2
2021/12/07 00:01:55;;;;;;;21.70;12.88;;;;;;;;;;4935055;29;20099;-86
2021/12/07 00:04:21;;;;;;;22.30;13.27;;;;;;;;;;4935031;29;20043;-87
2021/12/07 00:06:49;;;;;;;25.83;13.25;;;;;;;;;;4934744;29;20043;-85
2021/12/07 00:09:16;;;;;;;23.33;13.60;;;;;;;;;;4935090;29;20047;-86
2021/12/07 00:11:43;;;;;;;20.05;12.70;;;;;;;;;;4934742;29;20047;-83
2021/12/07 00:14:13;;;;;;;22.02;13.32;;;;;;;;;;4935181;29;20439;-86
2021/12/07 00:16:44;;;;;;;22.98;13.23;;;;;;;;;;4934603;29;20118;-85
2021/12/07 00:19:10;;;;;;;19.98;12.77;;;;;;;;;;4935023;29;20468;-86
2021/12/07 00:21:38;;;;;;;21.85;12.55;;;;;;;;;;4934468;29;20066;-85
2021/12/07 00:24:05;;;;;;;21.45;12.48;;;;;;;;;;4934753;29;20616;-86
2021/12/07 00:26:31;;;;;;;21.80;12.73;;;;;;;;;;4934434;29;20079;-87
2021/12/07 00:28:58;;;;;;;18.95;11.85;;;;;;;;;;4934833;29;20087;-86
2021/12/07 00:31:30;;;;;;;20.92;12.07;;;;;;;;;;4934532;29;20043;-85
2021/12/07 00:34:13;;;;;;;20.65;12.50;;;;;;;;;;4935053;29;20123;-87
2021/12/07 00:36:44;;;;;;;21.20;12.13;;;;;;;;;;4934240;29;20059;-85
2021/12/07 00:39:10;;;;;;;20.33;12.25;;;;;;;;;;4934708;29;20083;-86
2021/12/07 00:41:36;;;;;;;19.83;11.60;;;;;;;;;;4934282;29;20537;-87
2021/12/07 00:44:02;;;;;;;19.48;12.00;;;;;;;;;;4934543;29;20055;-86
2021/12/07 00:46:29;;;;;;;21.80;12.27;;;;;;;;;;4934363;29;20551;-86
2021/12/07 00:48:56;;;;;;;21.30;12.18;;;;;;;;;;4934147;29;20534;-86
2021/12/07 00:51:22;;;;;;;20.05;11.68;;;;;;;;;;4934675;29;20036;-86
2021/12/07 00:53:48;;;;;;;19.77;11.57;;;;;;;;;;4934419;29;20046;-84
2021/12/07 00:56:14;;;;;;;20.27;11.10;;;;;;;;;;4934091;29;20080;-84
2021/12/07 00:58:40;;;;;;;18.83;11.32;;;;;;;;;;4934315;29;20044;-85
2021/12/07 01:01:08;;;;;;;19.60;10.77;;;;;;;;;;4934665;29;20123;-86
2021/12/07 01:03:34;;;;;;;17.67;11.32;;;;;;;;;;4938520;29;20475;-85
2021/12/07 01:25:03;;;;;;;19.02;11.18;;;;;;;;;;4937799;29;20079;-85
2021/12/07 01:27:29;;;;;;;17.23;10.40;;;;;;;;;;4937739;29;20447;-86
2021/12/07 01:32:53;;;;;;;17.33;10.70;;;;;;;;;;4937541;29;20046;-85
2021/12/07 01:43:32;;;;;;;20.08;11.10;;;;;;;;;;4937567;29;20505;-85
2021/12/07 01:59:35;;;;;;;16.52;9.35;;;;;;;;;;4937348;29;20048;-85
2021/12/07 02:02:03;;;;;;;16.88;10.32;;;;;;;;;;4936987;29;20043;-86
2021/12/07 02:04:32;;;;;;;16.83;10.38;;;;;;;;;;4937180;29;20044;-84
2021/12/07 02:07:01;;;;;;;18.83;11.05;;;;;;;;;;4937240;29;20506;-86
2021/12/07 02:09:27;;;;;;;16.85;10.32;;;;;;;;;;4937340;29;20050;-85
2021/12/07 02:11:59;;;;;;;16.15;10.18;;;;;;;;;;4936872;29;20087;-86
2021/12/07 02:14:25;;;;;;;17.15;10.07;;;;;;;;;;4935671;29;20036;-86
2021/12/07 02:16:53;;;;;;;15.48;9.40;;;;;;;;;;4936784;29;20044;-85
2021/12/07 02:19:20;;;;;;;18.13;10.20;;;;;;;;;;4937033;29;20134;-85
2021/12/07 02:21:46;;;;;;;15.07;9.15;;;;;;;;;;4936703;29;20048;-85
2021/12/07 02:24:12;;;;;;;15.68;9.75;;;;;;;;;;4937013;29;20052;-86
2021/12/07 02:26:38;;;;;;;17.50;9.57;;;;;;;;;;4936693;29;20487;-86
2021/12/07 02:29:05;;;;;;;15.48;9.63;;;;;;;;;;4936826;29;20043;-85
2021/12/07 02:31:34;;;;;;;14.35;9.27;;;;;;;;;;4936753;29;20052;-85
2021/12/07 02:34:01;;;;;;;16.13;9.50;;;;;;;;;;4936495;29;20075;-86
2021/12/07 02:36:27;;;;;;;14.10;9.20;;;;;;;;;;4936432;29;20495;-86
2021/12/07 02:38:54;;;;;;;17.00;9.05;;;;;;;;;;4936632;29;20110;-86
2021/12/07 02:41:20;;;;;;;14.52;9.05;;;;;;;;;;4936307;29;20047;-86
2021/12/07 02:43:46;;;;;;;14.93;9.48;;;;;;;;;;4936362;29;20057;-86
2021/12/07 02:46:12;;;;;;;13.90;8.73;;;;;;;;;;4936241;29;20048;-86
2021/12/07 02:48:38;;;;;;;12.68;8.73;;;;;;;;;;4936353;29;20120;-85
2021/12/07 02:51:04;;;;;;;14.90;8.85;;;;;;;;;;4936867;29;20392;-85
2021/12/07 02:53:32;;;;;;;13.90;8.80;;;;;;;;;;4936057;29;20083;-85
2021/12/07 02:55:59;;;;;;;14.43;9.30;;;;;;;;;;4936154;29;20131;-85
2021/12/07 02:58:26;;;;;;;13.57;8.45;;;;;;;;;;4935947;29;20479;-86
2021/12/07 03:01:00;;;;;;;13.20;8.77;;;;;;;;;;4936411;29;20116;-85
2021/12/07 03:03:28;;;;;;;12.35;7.82;;;;;;;;;;4936088;29;20040;-86
2021/12/07 03:09:18;;;;;;;12.73;8.65;;;;;;;;;;4935760;29;20051;-86
2021/12/07 03:28:08;;;;;;;15.70;9.98;;;;;;;;;;4935729;29;20044;-86
2021/12/07 03:30:34;;;;;;;14.50;10.50;;;;;;;;;;4935770;29;20059;-84
2021/12/07 03:33:02;;;;;;;15.90;10.13;;;;;;;;;;4935475;29;20040;-85
2021/12/07 03:35:28;;;;;;;15.38;10.27;;;;;;;;;;4935410;29;20060;-86
2021/12/07 03:37:56;;;;;;;15.25;10.63;;;;;;;;;;4935271;29;20051;-85
2021/12/07 03:40:23;;;;;;;15.50;10.35;;;;;;;;;;4935552;29;20043;-86
2021/12/07 03:42:49;;;;;;;15.27;10.27;;;;;;;;;;4935406;29;20066;-85
2021/12/07 03:45:15;;;;;;;17.17;11.23;;;;;;;;;;4935388;29;20043;-86
2021/12/07 03:47:41;;;;;;;15.90;9.82;;;;;;;;;;4935315;29;20103;-85
2021/12/07 03:50:12;;;;;;;16.17;10.90;;;;;;;;;;4935166;29;20044;-85
2021/12/07 03:52:38;;;;;;;15.57;10.95;;;;;;;;;;4935488;29;20448;-86
2021/12/07 03:55:04;;;;;;;14.90;10.35;;;;;;;;;;4935225;29;20040;-86
2021/12/07 03:57:30;;;;;;;16.10;11.15;;;;;;;;;;4935546;29;20454;-85
2021/12/07 03:59:56;;;;;;;16.52;10.52;;;;;;;;;;4935362;29;20067;-84
2021/12/07 04:02:22;;;;;;;19.02;11.60;;;;;;;;;;4935043;29;20567;-87
2021/12/07 04:04:57;;;;;;;16.00;11.07;;;;;;;;;;4935287;29;20074;-85
2021/12/07 04:07:23;;;;;;;17.73;11.77;;;;;;;;;;4934905;29;20054;-85
2021/12/07 04:09:49;;;;;;;17.80;11.85;;;;;;;;;;4934957;29;20307;-86
2021/12/07 04:12:15;;;;;;;15.75;10.80;;;;;;;;;;4935039;29;20039;-87
2021/12/07 04:14:41;;;;;;;16.60;10.85;;;;;;;;;;4934819;29;20043;-86
2021/12/07 04:17:07;;;;;;;17.52;11.38;;;;;;;;;;4934774;29;20058;-84
2021/12/07 04:19:33;;;;;;;19.08;12.50;;;;;;;;;;4934678;29;20043;-85
2021/12/07 04:21:59;;;;;;;18.02;11.18;;;;;;;;;;4934878;29;20043;-85
2021/12/07 04:24:27;;;;;;;16.25;10.45;;;;;;;;;;4934812;29;20070;-85
2021/12/07 04:26:54;;;;;;;16.65;10.60;;;;;;;;;;4935237;29;20053;-85
2021/12/07 04:29:20;;;;;;;16.90;11.25;;;;;;;;;;4934395;29;20056;-85
2021/12/07 04:31:46;;;;;;;17.15;10.82;;;;;;;;;;4934681;29;20115;-86
2021/12/07 04:34:12;;;;;;;15.25;11.10;;;;;;;;;;4934486;29;20231;-85
2021/12/07 04:36:38;;;;;;;15.10;9.95;;;;;;;;;;4933850;29;20055;-86
2021/12/07 04:39:04;;;;;;;16.73;11.40;;;;;;;;;;4934388;29;20058;-87
2021/12/07 04:41:33;;;;;;;16.45;10.95;;;;;;;;;;4934637;29;20130;-86
2021/12/07 04:43:59;;;;;;;16.70;10.43;;;;;;;;;;4934210;29;20043;-85
2021/12/07 04:46:42;;;;;;;16.27;10.18;;;;;;;;;;4935465;29;20050;-83
2021/12/07 04:57:43;;;;;;;14.88;9.45;;;;;;;;;;4938431;29;20079;-83
2021/12/07 05:00:13;;;;;;;15.32;10.18;;;;;;;;;;4939124;29;20087;-84
2021/12/07 05:02:43;;;;;;;14.98;9.63;;;;;;;;;;4939672;29;20506;-83
2021/12/07 05:05:11;;;;;;;16.52;9.85;;;;;;;;;;4941045;29;20058;-83
2021/12/07 05:07:47;;;;;;;17.33;10.43;;;;;;;;;;4941223;29;20078;-82
2021/12/07 05:10:26;;;;;;;15.20;9.60;;;;;;;;;;4936685;29;20081;-85
2021/12/07 05:13:25;;;;;;;16.67;10.23;;;;;;;;;;4934211;29;20039;-86
2021/12/07 05:40:08;;;;;;;16.35;9.65;;;;;;;;;;4934066;29;20057;-86
2021/12/07 05:42:36;;;;;;;14.00;8.95;;;;;;;;;;4933902;29;20538;-85
2021/12/07 05:45:02;;;;;;;15.70;9.00;;;;;;;;;;4933659;29;20055;-85
2021/12/07 05:47:28;;;;;;;14.95;8.50;;;;;;;;;;4934735;29;20059;-86
2021/12/07 05:49:54;;;;;;;14.63;8.35;;;;;;;;;;4937241;29;20491;-86
2021/12/07 05:52:21;;;;;;;14.77;7.82;;;;;;;;;;4937471;29;20046;-86
2021/12/07 05:54:50;;;;;;;13.90;8.20;;;;;;;;;;4937150;29;20044;-86
2021/12/07 05:57:19;;;;;;;14.63;8.90;;;;;;;;;;4937363;29;20501;-87
2021/12/07 05:59:45;;;;;;;12.48;7.53;;;;;;;;;;4937169;29;20051;-87
2021/12/07 06:02:11;;;;;;;12.80;6.80;;;;;;;;;;4937172;29;20048;-86
2021/12/07 06:04:37;;;;;;;12.40;7.47;;;;;;;;;;4937126;29;20151;-86
2021/12/07 06:07:04;;;;;;;14.23;8.13;;;;;;;;;;4937141;29;20047;-86
2021/12/07 06:09:30;;;;;;;11.88;7.50;;;;;;;;;;4936956;29;20393;-87
2021/12/07 06:11:57;;;;;;;11.57;7.10;;;;;;;;;;4937150;29;20040;-86
2021/12/07 06:14:30;;;;;;;13.45;7.45;;;;;;;;;;4936772;29;20040;-86
2021/12/07 06:17:02;;;;;;;12.57;6.82;;;;;;;;;;4937073;29;20098;-86
2021/12/07 06:19:28;;;;;;;14.93;7.70;;;;;;;;;;4936785;29;20375;-86
2021/12/07 06:21:55;;;;;;;12.07;7.22;;;;;;;;;;4937144;29;20562;-86
2021/12/07 06:24:21;;;;;;;13.98;7.20;;;;;;;;;;4936564;29;20036;-87
2021/12/07 06:26:47;;;;;;;17.77;8.00;;;;;;;;;;4937050;29;20557;-86
2021/12/07 06:29:13;;;;;;;12.02;7.45;;;;;;;;;;4936388;29;20044;-85
2021/12/07 06:31:39;;;;;;;13.70;7.00;;;;;;;;;;4936667;29;20051;-86
2021/12/07 06:34:05;;;;;;;14.48;7.13;;;;;;;;;;4936378;29;20043;-86
2021/12/07 06:36:31;;;;;;;14.02;7.07;;;;;;;;;;4936585;29;20056;-86
2021/12/07 06:38:57;;;;;;;12.05;6.20;;;;;;;;;;4936367;29;20051;-86
2021/12/07 06:41:23;;;;;;;12.65;6.47;;;;;;;;;;4936564;29;20095;-86
2021/12/07 06:43:52;;;;;;;13.43;7.50;;;;;;;;;;4936386;29;20082;-86
2021/12/07 06:46:18;;;;;;;12.55;7.20;;;;;;;;;;4936619;29;20399;-86
2021/12/07 06:48:45;;;;;;;15.60;6.95;;;;;;;;;;4936124;29;20094;-87
2021/12/07 06:51:11;;;;;;;13.45;7.45;;;;;;;;;;4936347;29;20411;-86
2021/12/07 06:53:37;;;;;;;13.40;6.55;;;;;;;;;;4936179;29;20091;-87
2021/12/07 06:56:07;;;;;;;15.50;7.28;;;;;;;;;;4936376;29;20360;-86
2021/12/07 06:58:34;;;;;;;14.20;7.43;;;;;;;;;;4936032;29;20455;-87
2021/12/07 07:01:00;;;;;;;11.88;6.85;;;;;;;;;;4935806;29;20094;-87
2021/12/07 07:03:26;;;;;;;15.20;7.28;;;;;;;;;;4936319;29;20039;-86
2021/12/07 07:05:52;;;;;;;14.82;6.82;;;;;;;;;;4936140;29;20046;-86
2021/12/07 07:08:19;;;;;;;14.93;6.70;;;;;;;;;;4935903;29;20487;-86
2021/12/07 07:10:46;;;;;;;14.18;6.95;;;;;;;;;;4935818;29;20569;-85
2021/12/07 07:13:12;;;;;;;13.35;7.10;;;;;;;;;;4936357;29;20047;-85
2021/12/07 07:15:38;;;;;;;12.75;6.43;;;;;;;;;;4935728;29;20044;-84
2021/12/07 07:18:04;;;;;;;15.93;7.15;;;;;;;;;;4935871;29;20499;-86
2021/12/07 07:20:30;;;;;;;14.73;7.43;;;;;;;;;;4935696;29;20050;-86
2021/12/07 07:22:56;;;;;;;13.68;6.85;;;;;;;;;;4936037;29;20191;-86
2021/12/07 07:25:22;;;;;;;12.93;6.35;;;;;;;;;;4935560;29;20511;-85
2021/12/07 07:27:48;;;;;;;13.93;6.72;;;;;;;;;;4935596;29;20058;-85
2021/12/07 07:30:15;;;;;;;15.75;6.50;;;;;;;;;;4935425;29;20055;-85
2021/12/07 07:32:42;;;;;;;14.32;7.35;;;;;;;;;;4935656;29;20039;-86
2021/12/07 07:35:10;;;;;;;12.50;6.78;;;;;;;;;;4935597;29;20059;-86
2021/12/07 07:37:36;;;;;;;16.40;7.45;;;;;;;;;;4948813;29;20053;-86
2021/12/07 07:40:03;;;;;;;16.80;7.68;;;;;;;;;;4951483;29;20098;-88
2021/12/07 07:42:29;;;;;;;13.73;7.15;;;;;;;;;;4935701;29;20518;-86
2021/12/07 07:44:55;;;;;;;13.95;7.03;;;;;;;;;;4935115;29;20043;-84
2021/12/07 07:47:21;;;;;;;17.95;7.72;;;;;;;;;;4951471;29;20051;-85
2021/12/07 07:49:47;;;;;;;14.68;7.25;;;;;;;;;;4950914;29;20154;-86
2021/12/07 07:52:13;;;;;;;15.23;7.15;;;;;;;;;;4951617;29;20043;-84
2021/12/07 07:54:39;;;;;;;15.70;7.53;;;;;;;;;;4951124;29;20057;-83
2021/12/07 07:57:05;;;;;;;14.15;7.40;;;;;;;;;;4951174;29;20042;-87
2021/12/07 07:59:31;;;;;;;13.93;6.78;;;;;;;;;;4951123;29;20054;-90
2021/12/07 08:01:57;;;;;;;13.93;6.90;;;;;;;;;;4950974;29;20372;-87
2021/12/07 08:04:23;;;;;;;15.45;6.82;;;;;;;;;;4950747;29;20054;-82
2021/12/07 08:06:49;;;;;;;12.88;6.60;;;;;;;;;;4951424;29;20043;-81
2021/12/07 08:09:18;;;;;;;16.88;7.32;;;;;;;;;;4935963;29;20062;-86
2021/12/07 08:11:44;;;;;;;13.30;6.25;;;;;;;;;;4951230;28;20047;-86
2021/12/07 08:14:10;;;;;;;13.20;6.82;;;;;;;;;;4935103;29;20070;-86
2021/12/07 08:16:36;;;;;;;12.70;6.40;;;;;;;;;;4950846;29;20043;-88
2021/12/07 08:19:03;;;;;;;12.75;6.45;;;;;;;;;;4952019;29;20453;-85
2021/12/07 08:21:29;;;;;;;13.20;6.50;;;;;;;;;;4934649;29;20051;-85
2021/12/07 08:23:55;;;;;;;15.52;6.28;;;;;;;;;;4934831;29;20051;-87
2021/12/07 08:26:22;;;;;;;15.05;7.18;;;;;;;;;;4934363;29;20051;-86
2021/12/07 08:28:48;;;;;;;17.30;7.15;;;;;;;;;;4934779;29;20450;-87
2021/12/07 08:31:14;;;;;;;15.20;6.80;;;;;;;;;;4950650;29;20051;-85
2021/12/07 08:33:40;;;;;;;17.27;6.72;;;;;;;;;;4934397;29;20101;-86
2021/12/07 08:36:06;;;;;;;13.30;6.32;;;;;;;;;;4950221;29;20051;-86
2021/12/07 08:38:32;;;;;;;16.17;6.72;;;;;;;;;;4950482;29;20506;-86
2021/12/07 08:40:59;;;;;;;13.32;6.60;;;;;;;;;;4934736;29;20082;-86
2021/12/07 08:43:27;;;;;;;15.30;7.05;;;;;;;;;;4934475;29;20063;-86
2021/12/07 08:45:55;;;;;;;14.95;6.90;;;;;;;;;;4952457;29;20086;-86
2021/12/07 08:48:22;;;;;;;13.45;6.95;;;;;;;;;;4953893;29;20545;-84
2021/12/07 08:50:48;;;;;;;12.82;6.68;;;;;;;;;;4953342;29;20043;-85
2021/12/07 08:53:15;;;;;;;16.85;7.13;;;;;;;;;;4953595;29;20047;-84
2021/12/07 09:01:14;;;;;;;14.52;6.72;;;;;;;;;;4953397;29;20126;-85
2021/12/07 09:03:40;;;;;;;13.93;6.63;;;;;;;;;;4937386;29;20409;-86
2021/12/07 09:06:06;;;;;;;16.17;6.75;;;;;;;;;;4953032;29;20043;-86
2021/12/07 09:08:32;;;;;;;14.43;6.78;;;;;;;;;;4952964;29;20051;-85
2021/12/07 09:10:58;;;;;;;13.85;6.93;;;;;;;;;;4953083;29;20039;-85
2021/12/07 09:13:26;;;;;;;13.32;6.75;;;;;;;;;;4952539;29;20442;-84
2021/12/07 09:15:53;;;;;;;14.77;6.72;;;;;;;;;;4953162;29;20463;-85
2021/12/07 09:18:19;;;;;;;12.98;6.13;;;;;;;;;;4953466;29;20039;-85
2021/12/07 09:20:45;;;;;;;15.55;7.65;;;;;;;;;;4953005;29;20043;-85
2021/12/07 09:23:11;;;;;;;19.25;7.40;;;;;;;;;;4939719;29;20548;-85
2021/12/07 09:25:37;;;;;;;11.88;6.25;;;;;;;;;;4955868;29;20047;-85
2021/12/07 09:28:04;;;;;;;16.98;7.60;;;;;;;;;;4957045;29;20047;-85
2021/12/07 09:30:30;;;;;;;20.33;6.97;;;;;;;;;;4956548;29;20047;-84
2021/12/07 09:32:58;;;;;;;14.20;6.93;;;;;;;;;;4940415;29;20039;-85
2021/12/07 09:35:27;;;;;;;19.08;6.65;;;;;;;;;;4940706;29;20475;-86
2021/12/07 09:37:53;;;;;;;13.27;6.20;;;;;;;;;;4956962;29;20050;-85
2021/12/07 09:40:20;;;;;;;16.40;6.53;;;;;;;;;;4940147;29;20553;-86
2021/12/07 09:42:46;;;;;;;15.50;6.22;;;;;;;;;;4957007;29;20047;-86
2021/12/07 09:45:13;;;;;;;15.38;6.72;;;;;;;;;;4955848;29;20039;-87
2021/12/07 09:47:39;;;;;;;18.23;7.45;;;;;;;;;;4937672;29;20054;-88
2021/12/07 09:50:08;;;;;;;13.68;6.25;;;;;;;;;;4931609;29;20079;-89
2021/12/07 09:52:34;;;;;;;15.98;6.68;;;;;;;;;;4938246;29;20489;-89
2021/12/07 09:55:00;;;;;;;15.00;6.63;;;;;;;;;;4937487;29;20039;-87
2021/12/07 09:57:26;;;;;;;17.73;7.53;;;;;;;;;;4937345;29;20131;-87
2021/12/07 09:59:52;;;;;;;15.80;7.18;;;;;;;;;;4937651;29;20454;-87
2021/12/07 10:02:18;;;;;;;19.23;7.13;;;;;;;;;;4937221;29;20047;-87
2021/12/07 10:04:45;;;;;;;16.95;7.25;;;;;;;;;;4937549;29;20044;-88
2021/12/07 10:07:11;;;;;;;16.95;7.05;;;;;;;;;;4937268;29;20051;-87
2021/12/07 10:09:37;;;;;;;14.23;6.38;;;;;;;;;;4937719;29;20499;-87
2021/12/07 10:12:04;;;;;;;13.05;6.90;;;;;;;;;;4937237;29;20040;-86
2021/12/07 10:14:41;;;;;;;13.20;6.60;;;;;;;;;;4937168;29;20039;-87
2021/12/07 10:17:07;;;;;;;17.80;6.55;;;;;;;;;;4935779;29;20127;-87
2021/12/07 10:19:35;;;;;;;14.57;5.93;;;;;;;;;;4937137;29;20172;-86
2021/12/07 10:22:07;;;;;;;12.68;6.20;;;;;;;;;;4937310;29;20431;-84
2021/12/07 10:24:38;;;;;;;19.48;7.40;;;;;;;;;;4937105;29;20050;-87
2021/12/07 10:27:05;;;;;;;16.20;6.03;;;;;;;;;;4937337;29;20044;-86
2021/12/07 10:29:31;;;;;;;12.38;6.00;;;;;;;;;;4936619;29;20044;-86
2021/12/07 10:32:01;;;;;;;16.33;5.72;;;;;;;;;;4936518;29;20043;-87
2021/12/07 10:34:30;;;;;;;18.25;6.28;;;;;;;;;;4935344;29;20046;-86
2021/12/07 10:37:05;;;;;;;13.43;5.03;;;;;;;;;;4936836;29;20336;-87
2021/12/07 10:39:41;;;;;;;17.48;6.18;;;;;;;;;;4936787;29;20124;-86
2021/12/07 10:42:09;;;;;;;12.88;5.18;;;;;;;;;;4936443;29;20047;-87
2021/12/07 10:44:36;;;;;;;13.32;5.00;;;;;;;;;;4936867;29;20044;-86
2021/12/07 10:47:10;;;;;;;13.50;5.15;;;;;;;;;;4936203;29;20047;-83
2021/12/07 10:49:36;;;;;;;12.68;5.43;;;;;;;;;;4936281;29;20048;-82
2021/12/07 10:52:11;;;;;;;15.57;4.85;;;;;;;;;;4936602;29;20046;-85
2021/12/07 10:54:57;;;;;;;16.90;5.10;;;;;;;;;;4936585;29;20040;-88
2021/12/07 10:57:23;;;;;;;19.42;5.70;;;;;;;;;;4932776;29;20083;-88
2021/12/07 11:00:03;;;;;;;11.82;4.72;;;;;;;;;;4936422;29;20078;-86
2021/12/07 11:02:33;;;;;;;16.73;5.97;;;;;;;;;;4920592;29;20496;-86
2021/12/07 11:04:59;;;;;;;12.55;5.45;;;;;;;;;;4936716;29;20399;-87
2021/12/07 11:07:26;;;;;;;20.77;6.00;;;;;;;;;;4936339;29;20090;-87
2021/12/07 11:12:30;;;;;;;16.77;5.10;;;;;;;;;;4935480;29;20040;-87
2021/12/07 11:15:00;;;;;;;12.80;5.07;;;;;;;;;;4936451;29;20039;-87
2021/12/07 11:17:32;;;;;;;16.33;5.30;;;;;;;;;;4935647;29;20075;-88
2021/12/07 11:19:58;;;;;;;20.13;5.40;;;;;;;;;;4936417;29;20103;-89
2021/12/07 11:22:26;;;;;;;18.77;5.50;;;;;;;;;;4936133;29;20507;-88
2021/12/07 11:24:53;;;;;;;15.32;5.32;;;;;;;;;;4936589;29;20567;-88
2021/12/07 11:30:15;;;;;;;15.68;4.88;;;;;;;;;;4936093;29;20052;-90
2021/12/07 11:32:59;;;;;;;13.80;5.05;;;;;;;;;;4936175;29;20040;-89
2021/12/07 11:35:33;;;;;;;18.50;5.68;;;;;;;;;;4935421;29;20404;-91
2021/12/07 11:38:06;;;;;;;16.23;5.90;;;;;;;;;;4937099;29;20047;-87
2021/12/07 11:40:38;;;;;;;16.90;4.90;;;;;;;;;;4935807;29;20056;-88
2021/12/07 11:43:15;;;;;;;19.15;4.88;;;;;;;;;;4935600;29;20039;-86
2021/12/07 11:45:42;;;;;;;14.05;4.80;;;;;;;;;;4935267;29;20040;-85
2021/12/07 11:48:08;;;;;;;15.23;5.57;;;;;;;;;;4935154;29;20051;-87
2021/12/07 11:50:36;;;;;;;12.23;5.05;;;;;;;;;;4935340;29;20119;-87
2021/12/07 11:53:10;;;;;;;16.25;4.57;;;;;;;;;;4934688;29;20040;-88
2021/12/07 11:55:41;;;;;;;14.20;5.40;;;;;;;;;;4935539;29;20384;-87
2021/12/07 11:58:08;;;;;;;16.50;4.97;;;;;;;;;;4936435;29;20190;-87
2021/12/07 12:00:39;;;;;;;19.92;5.28;;;;;;;;;;4936730;29;20039;-88
2021/12/07 12:03:09;;;;;;;10.18;4.50;;;;;;;;;;4934917;29;20122;-86
2021/12/07 12:05:36;;;;;;;15.05;4.75;;;;;;;;;;4935131;29;20052;-86
2021/12/07 12:08:07;;;;;;;14.27;4.63;;;;;;;;;;4934855;29;20044;-85
2021/12/07 12:10:33;;;;;;;15.55;4.85;;;;;;;;;;4935387;29;20579;-85
2021/12/07 12:13:07;;;;;;;13.65;4.35;;;;;;;;;;4935093;29;20070;-86
2021/12/07 12:15:33;;;;;;;15.85;4.90;;;;;;;;;;4937884;29;20542;-86
2021/12/07 12:18:05;;;;;;;15.98;4.35;;;;;;;;;;4936586;29;20040;-84
2021/12/07 12:20:55;;;;;;;10.85;4.25;;;;;;;;;;4935390;29;20103;-84
2021/12/07 12:23:42;;;;;;;11.00;4.20;;;;;;;;;;4936391;29;20048;-84
2021/12/07 12:26:07;;;;;;;;;;;;;;;;;;4937373;29;20039;-86
2021/12/07 12:28:38;;;;;;;18.23;4.85;;;;;;;;;;4933636;29;19925;-85
2021/12/07 12:31:05;;;;;;;13.50;4.47;;;;;;;;;;4934950;29;20479;-85
2021/12/07 12:33:49;;;;;;;16.63;5.10;;;;;;;;;;4934520;29;20118;-86
2021/12/07 12:36:16;;;;;;;9.85;4.57;;;;;;;;;;4934287;29;20522;-85
2021/12/07 12:38:48;;;;;;;16.88;5.03;;;;;;;;;;4934381;29;20067;-85
2021/12/07 12:41:15;;;;;;;16.92;4.45;;;;;;;;;;4933455;29;20055;-85
2021/12/07 12:43:41;;;;;;;15.13;4.80;;;;;;;;;;4949808;29;20135;-85
2021/12/07 12:46:08;;;;;;;11.13;3.83;;;;;;;;;;4934299;29;20046;-85
2021/12/07 12:48:37;;;;;;;13.75;4.25;;;;;;;;;;4934411;29;20047;-85
2021/12/07 12:51:04;;;;;;;12.45;4.78;;;;;;;;;;4934725;29;20048;-85
2021/12/07 12:53:34;;;;;;;15.95;4.70;;;;;;;;;;4934467;29;20134;-86
2021/12/07 12:56:03;;;;;;;11.60;4.68;;;;;;;;;;4934314;29;20059;-87
2021/12/07 12:58:29;;;;;;;18.83;5.47;;;;;;;;;;4933491;29;20484;-86
2021/12/07 13:01:14;;;;;;;15.18;4.72;;;;;;;;;;4934369;29;20066;-84
2021/12/07 13:03:43;;;;;;;14.32;5.80;;;;;;;;;;4933767;29;20510;-86
2021/12/07 13:06:15;;;;;;;13.80;4.80;;;;;;;;;;4934356;29;20047;-85
2021/12/07 13:08:53;;;;;;;14.27;5.15;;;;;;;;;;4934382;29;20056;-86
2021/12/07 13:11:37;;;;;;;12.05;4.43;;;;;;;;;;4934597;29;20504;-86
2021/12/07 13:14:22;;;;;;;13.23;4.47;;;;;;;;;;4934119;29;20040;-85
2021/12/07 13:17:01;;;;;;;13.68;4.40;;;;;;;;;;4935424;29;20055;-89
2021/12/07 13:19:31;;;;;;;15.15;5.13;;;;;;;;;;4934489;29;20495;-90
2021/12/07 13:22:03;;;;;;;10.38;4.50;;;;;;;;;;4935604;29;20048;-90
2021/12/07 13:24:41;;;;;;;16.65;4.82;;;;;;;;;;4935248;29;20143;-93
2021/12/07 13:27:13;;;;;;;15.32;4.75;;;;;;;;;;4935668;29;20574;-91
2021/12/07 13:29:44;;;;;;;15.80;4.63;;;;;;;;;;4935989;29;20039;-90
2021/12/07 13:32:10;;;;;;;14.50;5.00;;;;;;;;;;4936300;29;20043;-90
2021/12/07 13:34:37;;;;;;;13.10;4.30;;;;;;;;;;4935665;29;20399;-90
2021/12/07 13:37:03;;;;;;;13.50;4.88;;;;;;;;;;4936317;29;20051;-90
2021/12/07 13:39:31;;;;;;;14.60;4.90;;;;;;;;;;4935765;29;20043;-91
2021/12/07 13:42:34;;;;;;;12.40;4.78;;;;;;;;;;4935427;29;20487;-93
2021/12/07 13:45:01;;;;;;;18.08;5.05;;;;;;;;;;4919091;29;20067;-91
2021/12/07 13:47:32;;;;;;;16.48;5.55;;;;;;;;;;4931822;29;20058;-89
2021/12/07 13:50:03;;;;;;;14.98;4.93;;;;;;;;;;4936993;29;20503;-90
2021/12/07 13:52:31;;;;;;;13.43;4.55;;;;;;;;;;4919005;29;20039;-89
2021/12/07 13:54:58;;;;;;;17.83;5.47;;;;;;;;;;4934761;29;20047;-88
2021/12/07 13:57:30;;;;;;;18.52;4.88;;;;;;;;;;4934934;29;20100;-89
2021/12/07 13:59:57;;;;;;;15.95;5.38;;;;;;;;;;4934396;29;20061;-90
2021/12/07 14:02:24;;;;;;;16.75;5.38;;;;;;;;;;4935272;29;20058;-90
2021/12/07 14:04:58;;;;;;;10.75;4.63;;;;;;;;;;4935053;29;20043;-91
2021/12/07 14:07:24;;;;;;;12.85;5.43;;;;;;;;;;4935110;29;20079;-90
2021/12/07 14:09:52;;;;;;;13.02;5.28;;;;;;;;;;4937543;29;20082;-90
2021/12/07 14:12:22;;;;;;;13.35;4.82;;;;;;;;;;4938326;29;20079;-89
2021/12/07 14:14:48;;;;;;;14.57;5.05;;;;;;;;;;4938347;29;20075;-89
2021/12/07 14:17:14;;;;;;;16.20;7.25;;;;;;;;;;4938629;29;20047;-91
2021/12/07 14:19:40;;;;;;;16.17;5.40;;;;;;;;;;4938400;29;20058;-89
2021/12/07 14:22:06;;;;;;;12.95;5.63;;;;;;;;;;4938417;29;20134;-89
2021/12/07 14:24:32;;;;;;;15.40;6.47;;;;;;;;;;4938122;29;20487;-88
2021/12/07 14:26:58;;;;;;;19.90;6.82;;;;;;;;;;4938165;29;20044;-90
2021/12/07 14:29:25;;;;;;;20.38;5.80;;;;;;;;;;4954029;29;20072;-90
2021/12/07 14:31:56;;;;;;;16.40;6.18;;;;;;;;;;4938195;29;20051;-89
2021/12/07 14:34:24;;;;;;;15.93;5.60;;;;;;;;;;4938162;29;20392;-90
2021/12/07 14:36:52;;;;;;;15.18;7.00;;;;;;;;;;4937867;29;20047;-89
2021/12/07 14:39:21;;;;;;;18.33;6.47;;;;;;;;;;4936892;29;20048;-86
2021/12/07 14:41:53;;;;;;;17.70;8.65;;;;;;;;;;4936728;29;20075;-85
2021/12/07 14:44:21;;;;;;;14.38;5.75;;;;;;;;;;4936481;29;20459;-85
2021/12/07 14:46:47;;;;;;;15.82;6.88;;;;;;;;;;4936738;29;20046;-85
2021/12/07 14:49:14;;;;;;;13.63;5.60;;;;;;;;;;4936591;29;20044;-85
2021/12/07 14:51:41;;;;;;;17.45;6.28;;;;;;;;;;4937018;29;20094;-86
2021/12/07 14:54:08;;;;;;;14.10;6.10;;;;;;;;;;4936490;29;20562;-86
2021/12/07 14:56:35;;;;;;;17.83;6.82;;;;;;;;;;4936762;29;20039;-85
2021/12/07 14:59:02;;;;;;;14.52;6.72;;;;;;;;;;4936415;29;20044;-86
2021/12/07 15:01:29;;;;;;;15.10;6.78;;;;;;;;;;4936958;29;20123;-85
2021/12/07 15:03:57;;;;;;;17.42;8.45;;;;;;;;;;4936294;29;20077;-85
2021/12/07 15:06:24;;;;;;;14.80;7.55;;;;;;;;;;4936400;29;20046;-86
2021/12/07 15:08:51;;;;;;;16.52;8.10;;;;;;;;;;4936358;29;20044;-85
2021/12/07 15:11:17;;;;;;;17.42;8.00;;;;;;;;;;4936354;29;20066;-85
2021/12/07 15:13:43;;;;;;;15.82;7.13;;;;;;;;;;4936202;29;20411;-85
2021/12/07 15:16:10;;;;;;;18.65;8.38;;;;;;;;;;4936309;29;20510;-85
2021/12/07 15:18:41;;;;;;;19.85;7.57;;;;;;;;;;4936363;29;20075;-86
2021/12/07 15:21:18;;;;;;;18.15;7.75;;;;;;;;;;4935625;29;20118;-87
2021/12/07 15:23:46;;;;;;;21.63;8.90;;;;;;;;;;4936166;29;20056;-87
2021/12/07 15:26:12;;;;;;;19.50;7.75;;;;;;;;;;4935045;29;20071;-87
2021/12/07 15:28:51;;;;;;;17.20;7.63;;;;;;;;;;4936209;29;20099;-85
2021/12/07 15:31:19;;;;;;;24.60;8.00;;;;;;;;;;4936039;29;20043;-86
2021/12/07 15:33:45;;;;;;;17.33;7.40;;;;;;;;;;4935826;29;20046;-86
2021/12/07 15:36:15;;;;;;;19.80;8.90;;;;;;;;;;4935743;29;20559;-85
2021/12/07 15:38:41;;;;;;;16.80;8.07;;;;;;;;;;4936109;29;20491;-88
2021/12/07 15:41:07;;;;;;;14.95;9.23;;;;;;;;;;4935628;29;20079;-86
2021/12/07 15:43:33;;;;;;;22.08;9.75;;;;;;;;;;4935947;29;20054;-87
2021/12/07 15:45:59;;;;;;;22.40;9.70;;;;;;;;;;4935903;29;20039;-90
2021/12/07 15:48:27;;;;;;;24.90;14.25;;;;;;;;;;4936838;29;20384;-93
2021/12/07 15:50:53;;;;;;;19.67;10.93;;;;;;;;;;4936583;29;20043;-89
2021/12/07 15:53:19;;;;;;;26.10;11.05;;;;;;;;;;4937557;29;20091;-90
2021/12/07 15:55:47;;;;;;;27.50;11.63;;;;;;;;;;4939357;29;20035;-89
2021/12/07 15:58:20;;;;;;;22.10;10.90;;;;;;;;;;4939901;29;20043;-85
2021/12/07 16:00:46;;;;;;;24.30;13.85;;;;;;;;;;4954458;29;20566;-91
2021/12/07 16:03:15;;;;;;;21.58;11.10;;;;;;;;;;4940281;29;20517;-89
2021/12/07 16:05:42;;;;;;;21.77;9.50;;;;;;;;;;4938655;29;20049;-89
2021/12/07 16:08:16;;;;;;;20.17;9.45;;;;;;;;;;4955302;29;20518;-89
2021/12/07 16:10:44;;;;;;;23.85;10.18;;;;;;;;;;4938848;29;20043;-87
2021/12/07 16:13:14;;;;;;;21.42;10.38;;;;;;;;;;4955436;29;20042;-89
2021/12/07 16:15:44;;;;;;;24.45;11.40;;;;;;;;;;4939224;29;20047;-89
2021/12/07 16:18:11;;;;;;;26.75;10.45;;;;;;;;;;4955204;29;20043;-92
2021/12/07 16:20:37;;;;;;;21.73;10.70;;;;;;;;;;4938843;29;20380;-90